Time;durP1;ratioP1;P1;durP2;ratioP2;P2;SDS_P1;SDS_P2;PMS_P1;PMS_P2;Temp;Humidity;BMP_temperature;BMP_pressure;BME280_temperature;BME280_humidity;BME280_pressure;Samples;Min_cycle;Max_cycle;Signal;HPM_P1;HPM_P2
2023/09/26 00:02:41;;;;;;;18.20;3.22;;;12.30;99.90;;;;;;5003774;28;20022;-90
2023/09/26 00:05:08;;;;;;;23.67;4.20;;;12.20;99.90;;;;;;4999155;28;20015;-90
2023/09/26 00:07:36;;;;;;;13.00;4.07;;;12.20;99.90;;;;;;5003702;28;20042;-90
2023/09/26 00:10:02;;;;;;;21.45;4.75;;;12.10;99.90;;;;;;5003834;28;20018;-90
2023/09/26 00:12:28;;;;;;;16.75;4.03;;;12.00;99.90;;;;;;5005722;28;20045;-92
2023/09/26 00:14:54;;;;;;;10.38;3.25;;;12.00;99.90;;;;;;4983656;28;20022;-92
2023/09/26 00:17:19;;;;;;;17.55;4.18;;;12.00;99.90;;;;;;4982863;28;20030;-92
2023/09/26 00:19:45;;;;;;;19.60;4.30;;;11.90;99.90;;;;;;4983411;28;20022;-91
2023/09/26 00:22:11;;;;;;;17.73;3.42;;;11.90;99.90;;;;;;5001719;28;20044;-91
2023/09/26 00:24:36;;;;;;;21.98;3.75;;;11.90;99.90;;;;;;4986231;28;20022;-90
2023/09/26 00:27:02;;;;;;;16.35;3.30;;;11.90;99.90;;;;;;5000382;28;20026;-93
2023/09/26 00:29:30;;;;;;;17.75;3.35;;;11.90;99.90;;;;;;4997995;28;20070;-90
2023/09/26 00:31:56;;;;;;;14.38;3.15;;;11.80;99.90;;;;;;4980383;28;20097;-91
2023/09/26 00:34:22;;;;;;;11.40;2.78;;;11.80;99.90;;;;;;4980166;28;20042;-91
2023/09/26 00:36:47;;;;;;;17.77;3.20;;;11.80;99.90;;;;;;4980244;28;20062;-91
2023/09/26 00:39:13;;;;;;;15.23;3.08;;;11.70;99.90;;;;;;4980353;28;20038;-90
2023/09/26 00:41:39;;;;;;;12.13;3.35;;;11.70;99.90;;;;;;4980109;28;20082;-91
2023/09/26 00:44:06;;;;;;;14.30;2.90;;;11.70;99.90;;;;;;4980158;28;20049;-90
2023/09/26 00:46:33;;;;;;;13.88;3.03;;;11.60;99.90;;;;;;4980238;28;20019;-91
2023/09/26 00:49:01;;;;;;;17.20;2.92;;;11.60;99.90;;;;;;4980058;28;20101;-91
2023/09/26 00:51:27;;;;;;;16.98;4.13;;;11.50;99.90;;;;;;4996759;28;20033;-91
2023/09/26 00:53:55;;;;;;;21.27;4.13;;;11.50;99.90;;;;;;4996347;28;20030;-91
2023/09/26 00:56:20;;;;;;;20.08;3.58;;;11.40;99.90;;;;;;4979848;28;20077;-91
2023/09/26 00:58:46;;;;;;;18.98;3.15;;;11.40;99.90;;;;;;4979426;28;20488;-91
2023/09/26 01:01:12;;;;;;;12.77;3.13;;;11.40;99.90;;;;;;4979680;28;20038;-92
2023/09/26 01:03:38;;;;;;;16.67;2.85;;;11.30;99.90;;;;;;4996588;28;20029;-92
2023/09/26 01:06:05;;;;;;;16.17;3.20;;;11.30;99.90;;;;;;4996566;28;20396;-90
2023/09/26 01:08:30;;;;;;;15.82;3.05;;;11.20;99.90;;;;;;4996332;28;20480;-91
2023/09/26 01:10:58;;;;;;;13.27;3.00;;;11.20;99.90;;;;;;4978844;28;20053;-93
2023/09/26 01:13:24;;;;;;;15.40;4.05;;;11.10;99.90;;;;;;4978682;28;20480;-91
2023/09/26 01:15:50;;;;;;;13.55;3.40;;;11.10;99.90;;;;;;4995759;28;20534;-92
2023/09/26 01:18:17;;;;;;;16.38;3.95;;;11.10;99.90;;;;;;4976162;28;20026;-92
2023/09/26 01:20:44;;;;;;;20.08;4.63;;;11.00;99.90;;;;;;4978779;28;20373;-91
2023/09/26 01:23:12;;;;;;;13.70;4.22;;;11.00;99.90;;;;;;4995529;28;20034;-92
2023/09/26 01:25:38;;;;;;;13.93;3.78;;;10.90;99.90;;;;;;4975987;28;20555;-92
2023/09/26 01:28:12;;;;;;;13.30;4.82;;;10.90;99.90;;;;;;4978429;28;20026;-91
2023/09/26 01:30:38;;;;;;;19.45;3.72;;;10.80;99.90;;;;;;4975835;28;20101;-90
2023/09/26 01:33:08;;;;;;;17.45;4.10;;;10.80;99.90;;;;;;4978149;28;20046;-91
2023/09/26 01:35:34;;;;;;;19.55;4.00;;;10.80;99.90;;;;;;4978330;28;20021;-91
2023/09/26 01:38:00;;;;;;;19.38;4.32;;;10.80;99.90;;;;;;4996054;28;20030;-91
2023/09/26 01:40:26;;;;;;;13.63;3.00;;;10.70;99.90;;;;;;4978889;28;20560;-91
2023/09/26 01:42:51;;;;;;;16.25;4.55;;;10.70;99.90;;;;;;4979253;28;20063;-91
2023/09/26 01:45:17;;;;;;;15.48;3.13;;;10.70;99.90;;;;;;4980834;28;20100;-91
2023/09/26 01:47:47;;;;;;;17.02;4.15;;;10.70;99.90;;;;;;4987388;28;20022;-92
2023/09/26 01:50:14;;;;;;;14.38;3.65;;;10.60;99.90;;;;;;5008516;28;20082;-90
2023/09/26 01:52:40;;;;;;;15.40;3.60;;;10.60;99.90;;;;;;5001846;28;20049;-88
2023/09/26 01:55:08;;;;;;;9.32;3.22;;;10.60;99.90;;;;;;5018284;28;20014;-88
2023/09/26 01:57:33;;;;;;;15.43;3.33;;;10.60;99.90;;;;;;5017162;28;20121;-89
2023/09/26 02:00:01;;;;;;;21.35;3.63;;;10.60;99.90;;;;;;4988548;28;20035;-90
2023/09/26 02:02:27;;;;;;;16.88;3.53;;;10.70;99.90;;;;;;4989242;28;20089;-89
2023/09/26 02:04:53;;;;;;;23.15;3.90;;;10.70;99.90;;;;;;4986455;28;20451;-89
2023/09/26 02:07:18;;;;;;;13.13;3.63;;;10.80;99.90;;;;;;4986410;28;20026;-90
2023/09/26 02:09:47;;;;;;;13.57;3.47;;;10.90;99.90;;;;;;4985041;28;20025;-90
2023/09/26 02:12:12;;;;;;;14.25;3.28;;;10.90;99.90;;;;;;4981849;28;20033;-91
2023/09/26 02:14:38;;;;;;;8.55;3.92;;;11.00;99.90;;;;;;4983001;28;20073;-90
2023/09/26 02:17:04;;;;;;;11.50;3.47;;;11.00;99.90;;;;;;4981754;28;20053;-91
2023/09/26 02:19:29;;;;;;;13.20;3.60;;;11.00;99.90;;;;;;4982909;28;20062;-91
2023/09/26 02:21:55;;;;;;;28.75;5.07;;;11.00;99.90;;;;;;4982750;28;20031;-90
2023/09/26 02:24:20;;;;;;;18.27;4.03;;;11.10;99.90;;;;;;4982721;28;20026;-91
2023/09/26 02:26:46;;;;;;;28.05;5.45;;;11.10;99.90;;;;;;4984992;28;20065;-91
2023/09/26 02:29:12;;;;;;;23.17;5.65;;;11.20;99.90;;;;;;4979815;28;20114;-92
2023/09/26 02:31:37;;;;;;;28.83;6.53;;;11.30;99.90;;;;;;4981388;28;20444;-92
2023/09/26 02:34:03;;;;;;;35.67;8.07;;;11.40;99.90;;;;;;4979484;28;20062;-91
2023/09/26 02:36:28;;;;;;;57.05;10.50;;;11.50;99.90;;;;;;4973438;28;20029;-91
2023/09/26 02:38:54;;;;;;;40.90;9.75;;;11.60;99.90;;;;;;4973300;28;20030;-91
2023/09/26 02:41:20;;;;;;;41.83;9.40;;;11.70;99.90;;;;;;4973523;28;20038;-92
2023/09/26 02:43:45;;;;;;;45.97;10.27;;;11.90;99.90;;;;;;4974349;28;20526;-91
2023/09/26 02:46:11;;;;;;;51.35;11.65;;;12.00;99.90;;;;;;4973389;28;20023;-91
2023/09/26 02:48:36;;;;;;;39.15;11.68;;;12.00;99.90;;;;;;4973584;28;20041;-91
2023/09/26 02:51:05;;;;;;;42.92;10.85;;;12.10;99.90;;;;;;4973483;28;20495;-92
2023/09/26 02:53:31;;;;;;;39.05;10.02;;;12.20;99.90;;;;;;4973313;28;20065;-91
2023/09/26 02:55:56;;;;;;;36.90;9.48;;;12.20;99.90;;;;;;4969236;28;20023;-91
2023/09/26 02:58:22;;;;;;;47.53;10.20;;;12.30;99.90;;;;;;4973261;28;20023;-91
2023/09/26 03:00:50;;;;;;;43.65;10.65;;;12.30;99.90;;;;;;4973222;28;20492;-92
2023/09/26 03:03:16;;;;;;;36.78;9.30;;;12.30;99.90;;;;;;4973861;28;20492;-91
2023/09/26 03:05:49;;;;;;;36.70;8.45;;;12.20;99.90;;;;;;4974520;28;20058;-91
2023/09/26 03:08:15;;;;;;;42.83;9.05;;;12.20;99.90;;;;;;4973508;28;20477;-91
2023/09/26 03:10:40;;;;;;;26.20;7.45;;;12.30;99.90;;;;;;4973817;28;20019;-90
2023/09/26 03:13:06;;;;;;;49.50;9.63;;;12.30;99.90;;;;;;4974762;28;20038;-89
2023/09/26 03:15:32;;;;;;;51.38;9.70;;;12.30;99.90;;;;;;4973393;28;20562;-90
2023/09/26 03:17:58;;;;;;;31.60;7.85;;;12.30;99.90;;;;;;4973319;28;20033;-90
2023/09/26 03:20:23;;;;;;;41.58;8.25;;;12.30;99.90;;;;;;4973013;28;20412;-90
2023/09/26 03:22:49;;;;;;;30.77;7.68;;;12.30;99.90;;;;;;4975841;28;20077;-90
2023/09/26 03:25:15;;;;;;;34.33;7.10;;;12.30;99.90;;;;;;4976682;28;20023;-91
2023/09/26 03:27:42;;;;;;;23.35;6.13;;;12.30;99.90;;;;;;4976861;28;20069;-90
2023/09/26 03:30:08;;;;;;;30.50;6.90;;;12.30;99.90;;;;;;4976736;28;20047;-91
2023/09/26 03:32:34;;;;;;;27.42;6.70;;;12.30;99.90;;;;;;4976446;28;20035;-90
2023/09/26 03:34:59;;;;;;;32.13;7.28;;;12.20;99.90;;;;;;4976760;28;20499;-90
2023/09/26 03:37:25;;;;;;;28.52;6.88;;;12.20;99.90;;;;;;4976361;28;20027;-91
2023/09/26 03:39:50;;;;;;;34.20;7.90;;;12.20;99.90;;;;;;4976689;28;20027;-91
2023/09/26 03:42:16;;;;;;;37.17;6.68;;;12.20;99.90;;;;;;4976953;28;20026;-90
2023/09/26 03:44:43;;;;;;;26.55;6.25;;;12.20;99.90;;;;;;4976673;28;20026;-90
2023/09/26 03:47:08;;;;;;;28.60;6.97;;;12.20;99.90;;;;;;4974056;28;20030;-91
2023/09/26 03:49:34;;;;;;;26.10;7.93;;;12.10;99.90;;;;;;4976198;28;20539;-91
2023/09/26 03:51:59;;;;;;;33.70;8.55;;;12.10;99.90;;;;;;4977908;28;20046;-90
2023/09/26 03:54:25;;;;;;;26.75;7.05;;;12.10;99.90;;;;;;4976473;28;20034;-92
2023/09/26 03:56:51;;;;;;;26.65;6.75;;;12.10;99.90;;;;;;4976283;28;20027;-92
2023/09/26 03:59:17;;;;;;;40.45;6.28;;;12.10;99.90;;;;;;4974668;28;20023;-91
2023/09/26 04:01:43;;;;;;;25.08;6.97;;;12.10;99.90;;;;;;4976224;28;20019;-92
2023/09/26 04:04:08;;;;;;;23.42;6.22;;;12.00;99.90;;;;;;4976094;28;20026;-91
2023/09/26 04:06:34;;;;;;;26.95;7.75;;;12.00;99.90;;;;;;4975831;28;20078;-90
2023/09/26 04:09:00;;;;;;;33.65;8.05;;;12.00;99.90;;;;;;4977318;28;20038;-91
2023/09/26 04:11:26;;;;;;;35.15;6.25;;;12.00;99.90;;;;;;4976853;28;20034;-91
2023/09/26 04:13:51;;;;;;;28.15;7.32;;;12.00;99.90;;;;;;4975681;28;20034;-90
2023/09/26 04:16:17;;;;;;;36.55;6.43;;;12.00;99.90;;;;;;4973214;28;20026;-89
2023/09/26 04:18:46;;;;;;;26.13;5.50;;;11.90;99.90;;;;;;4977065;28;20029;-90
2023/09/26 04:21:12;;;;;;;28.40;7.70;;;11.90;99.90;;;;;;4976773;28;20034;-90
2023/09/26 04:23:37;;;;;;;26.98;6.38;;;11.90;99.90;;;;;;4975807;28;20031;-90
2023/09/26 04:26:14;;;;;;;25.17;5.40;;;11.90;99.90;;;;;;4976913;28;20041;-92
2023/09/26 04:28:41;;;;;;;34.95;7.47;;;11.80;99.90;;;;;;4977765;28;20026;-91
2023/09/26 04:31:16;;;;;;;28.90;6.72;;;11.80;99.90;;;;;;4979111;28;20046;-90
2023/09/26 04:33:42;;;;;;;25.80;6.03;;;11.70;99.90;;;;;;4975963;28;20030;-91
2023/09/26 04:36:08;;;;;;;32.63;7.10;;;11.70;99.90;;;;;;4985318;28;20026;-91
2023/09/26 04:38:34;;;;;;;39.53;8.10;;;11.70;99.90;;;;;;4987641;28;20025;-91
2023/09/26 04:41:03;;;;;;;24.85;6.88;;;11.80;99.90;;;;;;5002607;28;20030;-91
2023/09/26 04:43:33;;;;;;;28.10;7.07;;;11.80;99.90;;;;;;4979829;28;20046;-90
2023/09/26 04:45:59;;;;;;;33.33;8.02;;;11.80;99.90;;;;;;4976829;28;20088;-91
2023/09/26 04:48:25;;;;;;;24.63;5.78;;;11.80;99.90;;;;;;4978457;28;20025;-91
2023/09/26 04:50:51;;;;;;;41.70;6.68;;;11.90;99.90;;;;;;4978592;28;20033;-91
2023/09/26 04:53:17;;;;;;;21.50;5.43;;;11.90;99.90;;;;;;4975549;28;20030;-89
2023/09/26 04:55:42;;;;;;;37.35;7.78;;;11.90;99.90;;;;;;4978523;28;20110;-90
2023/09/26 04:58:09;;;;;;;37.58;6.97;;;12.00;99.90;;;;;;4978380;28;20026;-89
2023/09/26 05:00:36;;;;;;;33.88;6.50;;;12.00;99.90;;;;;;4978493;28;20027;-91
2023/09/26 05:03:02;;;;;;;32.47;7.88;;;12.00;99.90;;;;;;4977633;28;20121;-90
2023/09/26 05:05:28;;;;;;;37.83;7.20;;;12.10;99.90;;;;;;4977730;28;20018;-90
2023/09/26 05:07:54;;;;;;;35.97;6.75;;;12.10;99.90;;;;;;4977327;28;20034;-90
2023/09/26 05:10:20;;;;;;;34.03;6.38;;;12.10;99.90;;;;;;4978820;28;20026;-90
2023/09/26 05:12:46;;;;;;;33.25;6.85;;;12.20;99.90;;;;;;4978760;28;20041;-91
2023/09/26 05:15:14;;;;;;;36.05;8.70;;;12.20;99.90;;;;;;4979963;28;20023;-90
2023/09/26 05:17:49;;;;;;;32.88;6.90;;;12.20;99.90;;;;;;4978297;28;20030;-91
2023/09/26 05:20:16;;;;;;;25.33;6.53;;;12.20;99.90;;;;;;4978960;28;20469;-91
2023/09/26 05:22:44;;;;;;;28.13;6.80;;;12.20;99.90;;;;;;4979201;28;20153;-90
2023/09/26 05:25:10;;;;;;;28.73;6.80;;;12.30;99.90;;;;;;4979483;28;20025;-92
2023/09/26 05:27:38;;;;;;;29.88;6.32;;;12.40;99.90;;;;;;4978929;28;20026;-92
2023/09/26 05:30:07;;;;;;;37.33;7.20;;;12.30;99.90;;;;;;4978836;28;20042;-91
2023/09/26 05:32:33;;;;;;;32.25;6.75;;;12.40;99.90;;;;;;4975403;28;20035;-91
2023/09/26 05:34:59;;;;;;;22.02;4.78;;;12.40;99.90;;;;;;4978262;28;20069;-91
2023/09/26 05:37:25;;;;;;;33.00;6.10;;;12.40;99.90;;;;;;4978154;28;20105;-92
2023/09/26 05:39:51;;;;;;;32.25;6.85;;;12.50;99.90;;;;;;4978395;28;20018;-91
2023/09/26 05:42:16;;;;;;;26.17;6.20;;;12.50;99.90;;;;;;4977643;28;20498;-91
2023/09/26 05:44:42;;;;;;;24.48;5.57;;;12.50;99.90;;;;;;4977318;28;20031;-91
2023/09/26 05:47:08;;;;;;;24.88;5.75;;;12.50;99.90;;;;;;4975440;28;20491;-90
2023/09/26 05:49:33;;;;;;;25.90;6.07;;;12.50;99.90;;;;;;4993509;28;20579;-91
2023/09/26 05:51:59;;;;;;;23.00;6.55;;;12.50;99.90;;;;;;4976132;28;20070;-90
2023/09/26 05:54:24;;;;;;;17.88;4.70;;;12.50;99.90;;;;;;4977167;28;20073;-90
2023/09/26 05:56:50;;;;;;;25.80;5.35;;;12.50;99.90;;;;;;4994601;28;20026;-90
2023/09/26 05:59:16;;;;;;;24.88;5.25;;;12.50;99.90;;;;;;4976974;28;20117;-90
2023/09/26 06:01:41;;;;;;;29.90;5.18;;;12.50;99.90;;;;;;4976888;28;20026;-90
2023/09/26 06:04:07;;;;;;;19.65;5.50;;;12.60;99.90;;;;;;4976889;28;20113;-90
2023/09/26 06:06:33;;;;;;;24.33;5.63;;;12.60;99.90;;;;;;4976977;28;20034;-91
2023/09/26 06:08:59;;;;;;;27.98;5.85;;;12.60;99.90;;;;;;4976111;28;20022;-91
2023/09/26 06:11:25;;;;;;;25.00;5.00;;;12.60;99.90;;;;;;4977033;28;20018;-89
2023/09/26 06:13:52;;;;;;;22.80;5.88;;;12.60;99.90;;;;;;4976637;28;20046;-90
2023/09/26 06:16:21;;;;;;;26.67;6.18;;;12.60;99.90;;;;;;4976896;28;20499;-90
2023/09/26 06:18:48;;;;;;;30.67;5.38;;;12.60;99.90;;;;;;4977492;28;20026;-90
2023/09/26 06:21:14;;;;;;;16.55;4.28;;;12.60;99.90;;;;;;4977467;28;20029;-89
2023/09/26 06:23:41;;;;;;;18.52;5.97;;;12.50;99.90;;;;;;4977229;28;20029;-90
2023/09/26 06:26:07;;;;;;;27.73;5.97;;;12.60;99.90;;;;;;4977203;28;20085;-90
2023/09/26 06:28:33;;;;;;;33.63;5.85;;;12.60;99.90;;;;;;4992461;28;20053;-90
2023/09/26 06:31:10;;;;;;;22.73;6.35;;;12.60;99.90;;;;;;4976654;28;20062;-90
2023/09/26 06:33:36;;;;;;;20.20;5.82;;;12.50;99.90;;;;;;4975838;28;20053;-90
2023/09/26 06:36:14;;;;;;;32.30;7.22;;;12.60;99.90;;;;;;4976812;28;20030;-90
2023/09/26 06:38:40;;;;;;;23.55;5.30;;;12.60;99.90;;;;;;4975756;28;20284;-89
2023/09/26 06:41:06;;;;;;;26.55;5.93;;;12.60;99.90;;;;;;4977535;28;20026;-89
2023/09/26 06:43:32;;;;;;;34.63;6.50;;;12.60;99.90;;;;;;4981836;28;20026;-90
2023/09/26 06:46:02;;;;;;;31.33;6.47;;;12.60;99.90;;;;;;4985428;28;20057;-89
2023/09/26 06:48:27;;;;;;;25.63;6.22;;;12.60;99.90;;;;;;4981739;28;20037;-92
2023/09/26 06:50:53;;;;;;;23.67;5.90;;;12.50;99.90;;;;;;4977225;28;20034;-92
2023/09/26 06:53:18;;;;;;;24.05;5.25;;;12.50;99.90;;;;;;4976914;28;20041;-92
2023/09/26 06:55:44;;;;;;;31.33;6.22;;;12.50;99.90;;;;;;4977012;28;20042;-89
2023/09/26 06:58:10;;;;;;;19.58;5.47;;;12.50;99.90;;;;;;4981854;28;20056;-90
2023/09/26 07:00:37;;;;;;;22.67;5.75;;;12.50;99.90;;;;;;5002426;28;20019;-90
2023/09/26 07:03:04;;;;;;;24.17;5.28;;;12.60;99.90;;;;;;4985834;28;20117;-92
2023/09/26 07:05:30;;;;;;;25.15;5.97;;;12.60;99.90;;;;;;4984501;28;20034;-91
2023/09/26 07:07:55;;;;;;;28.23;6.50;;;12.60;99.90;;;;;;4984523;28;20088;-91
2023/09/26 07:10:24;;;;;;;25.25;5.57;;;12.50;99.90;;;;;;4988007;28;20053;-93
2023/09/26 07:12:51;;;;;;;30.00;5.93;;;12.60;99.90;;;;;;4984977;28;20073;-92
2023/09/26 07:15:18;;;;;;;23.80;5.72;;;12.60;99.90;;;;;;5003709;28;20024;-91
2023/09/26 07:17:44;;;;;;;26.52;5.82;;;12.60;99.90;;;;;;4995842;28;20121;-92
2023/09/26 07:20:14;;;;;;;24.67;5.70;;;12.60;99.90;;;;;;4990019;28;20027;-92
2023/09/26 07:22:44;;;;;;;22.43;6.13;;;12.60;99.90;;;;;;4997032;28;20264;-92
2023/09/26 07:25:11;;;;;;;29.23;6.75;;;12.60;99.90;;;;;;4982630;28;20615;-93
2023/09/26 07:27:36;;;;;;;23.65;7.25;;;12.60;99.90;;;;;;4983338;28;20026;-93
2023/09/26 07:30:04;;;;;;;25.80;5.93;;;12.60;99.90;;;;;;4985017;28;20056;-91
2023/09/26 07:32:30;;;;;;;22.05;6.03;;;12.60;99.90;;;;;;4985237;28;20038;-92
2023/09/26 07:34:57;;;;;;;27.65;6.35;;;12.60;99.90;;;;;;4981876;28;20396;-92
2023/09/26 07:37:22;;;;;;;20.92;6.80;;;12.60;99.90;;;;;;4983204;28;20022;-91
2023/09/26 07:39:51;;;;;;;21.48;6.13;;;12.60;99.90;;;;;;4986100;28;20026;-93
2023/09/26 07:42:18;;;;;;;19.15;6.15;;;12.60;99.90;;;;;;5007900;28;20029;-93
2023/09/26 07:44:44;;;;;;;28.35;6.97;;;12.60;99.90;;;;;;4991894;28;20038;-92
2023/09/26 07:47:09;;;;;;;23.48;6.60;;;12.60;99.90;;;;;;4986430;28;20030;-92
2023/09/26 07:49:35;;;;;;;16.20;6.00;;;12.60;99.90;;;;;;4982574;28;20023;-92
2023/09/26 07:52:01;;;;;;;21.42;6.30;;;12.60;99.90;;;;;;4989844;28;20045;-92
2023/09/26 07:54:26;;;;;;;20.50;6.63;;;12.60;99.90;;;;;;4995876;28;20072;-94
2023/09/26 07:56:52;;;;;;;31.00;7.80;;;12.60;99.90;;;;;;4986692;28;20499;-93
2023/09/26 07:59:18;;;;;;;26.27;6.57;;;12.50;99.90;;;;;;4985765;28;20038;-93
2023/09/26 08:01:43;;;;;;;22.30;5.95;;;12.50;99.90;;;;;;4985510;28;20023;-92
2023/09/26 08:04:09;;;;;;;23.33;7.18;;;12.50;99.90;;;;;;4982999;28;20101;-92
2023/09/26 08:06:35;;;;;;;26.77;6.40;;;12.50;99.90;;;;;;4984529;28;20030;-91
2023/09/26 08:09:00;;;;;;;17.67;6.43;;;12.60;99.90;;;;;;4983556;28;20118;-92
2023/09/26 08:11:27;;;;;;;18.55;6.07;;;12.60;99.90;;;;;;4981000;28;20022;-94
2023/09/26 08:13:54;;;;;;;19.95;6.25;;;12.60;99.90;;;;;;4980615;28;20057;-94
2023/09/26 08:16:21;;;;;;;22.08;7.22;;;12.60;99.90;;;;;;4982471;28;20054;-94
2023/09/26 08:18:49;;;;;;;27.20;8.55;;;12.60;99.90;;;;;;4992139;28;20027;-93
2023/09/26 08:21:15;;;;;;;28.35;9.30;;;12.60;99.90;;;;;;4995904;28;20050;-94
2023/09/26 08:23:40;;;;;;;26.85;10.30;;;12.70;99.90;;;;;;4992489;28;20034;-92
2023/09/26 08:26:10;;;;;;;22.58;8.82;;;12.60;99.90;;;;;;4988060;28;20042;-92
2023/09/26 08:28:36;;;;;;;25.03;9.43;;;12.60;99.90;;;;;;5004172;28;20022;-94
2023/09/26 08:31:08;;;;;;;25.48;8.82;;;12.70;99.90;;;;;;4988243;28;20332;-94
2023/09/26 08:33:34;;;;;;;29.90;8.68;;;12.70;99.90;;;;;;4991980;28;20026;-91
2023/09/26 08:36:00;;;;;;;23.13;9.52;;;12.80;99.90;;;;;;4998971;28;20030;-95
2023/09/26 08:38:27;;;;;;;27.17;10.60;;;12.80;99.90;;;;;;4995263;28;20110;-92
2023/09/26 08:40:56;;;;;;;29.85;11.25;;;12.90;99.90;;;;;;4992551;28;20036;-93
2023/09/26 08:43:26;;;;;;;24.15;9.23;;;12.90;99.90;;;;;;4986776;28;20026;-93
2023/09/26 08:45:52;;;;;;;22.23;9.30;;;13.00;99.90;;;;;;4983189;28;20060;-92
2023/09/26 08:48:19;;;;;;;21.33;7.65;;;13.00;99.90;;;;;;4981153;28;20046;-93
2023/09/26 08:50:44;;;;;;;25.92;8.77;;;13.10;99.90;;;;;;4982115;28;20046;-92
2023/09/26 08:53:10;;;;;;;14.48;5.88;;;13.10;99.90;;;;;;4984339;28;20411;-93
2023/09/26 08:55:39;;;;;;;20.60;6.45;;;13.10;99.90;;;;;;4979734;28;20026;-93
2023/09/26 08:58:06;;;;;;;19.35;6.15;;;13.10;99.90;;;;;;4981083;28;20035;-95
2023/09/26 09:00:32;;;;;;;14.82;5.18;;;13.10;99.90;;;;;;4985748;28;20029;-93
2023/09/26 09:03:01;;;;;;;14.95;4.60;;;13.10;99.90;;;;;;4984367;28;20046;-94
2023/09/26 09:05:26;;;;;;;16.92;5.15;;;13.10;99.90;;;;;;4976892;28;20019;-95
2023/09/26 09:07:53;;;;;;;12.60;4.45;;;13.10;99.90;;;;;;4962747;28;20054;-94
2023/09/26 09:10:19;;;;;;;14.25;4.68;;;13.10;99.90;;;;;;4978810;28;20033;-94
2023/09/26 09:12:52;;;;;;;16.40;4.45;;;13.10;99.90;;;;;;4981726;28;20065;-95
2023/09/26 09:15:20;;;;;;;12.68;4.03;;;13.10;99.90;;;;;;4993159;28;20022;-95
2023/09/26 09:17:47;;;;;;;12.82;3.92;;;13.10;99.90;;;;;;4976406;28;20030;-94
2023/09/26 09:20:16;;;;;;;11.43;4.30;;;13.10;99.90;;;;;;4979537;28;20014;-95
2023/09/26 09:22:48;;;;;;;13.00;3.80;;;13.10;99.90;;;;;;4981054;28;20022;-94
2023/09/26 09:25:15;;;;;;;10.88;3.53;;;13.10;99.90;;;;;;4980518;28;20174;-95
2023/09/26 09:27:43;;;;;;;10.23;3.83;;;13.10;99.90;;;;;;4983298;28;20057;-94
2023/09/26 09:30:14;;;;;;;11.50;3.67;;;13.10;99.90;;;;;;4983723;28;20047;-95
2023/09/26 09:32:41;;;;;;;10.57;4.35;;;13.10;99.90;;;;;;4984204;28;20032;-94
2023/09/26 09:35:11;;;;;;;10.98;3.42;;;13.20;99.90;;;;;;4983732;28;20022;-95
2023/09/26 09:37:37;;;;;;;8.95;3.33;;;13.30;99.90;;;;;;4983892;28;20026;-95
2023/09/26 09:40:05;;;;;;;11.38;3.40;;;13.30;99.90;;;;;;4984774;28;20498;-95
2023/09/26 09:42:31;;;;;;;15.38;4.40;;;13.40;99.90;;;;;;4984720;28;20109;-94
2023/09/26 09:44:56;;;;;;;12.77;4.05;;;13.40;99.90;;;;;;4984694;28;20049;-94
2023/09/26 09:47:24;;;;;;;12.65;3.40;;;13.50;99.90;;;;;;4983713;28;20118;-93
2023/09/26 09:49:51;;;;;;;14.18;4.05;;;13.60;99.90;;;;;;4986280;28;20034;-95
2023/09/26 09:52:19;;;;;;;17.42;4.95;;;13.60;99.90;;;;;;4984649;28;20030;-94
2023/09/26 09:54:51;;;;;;;10.35;3.60;;;13.70;99.90;;;;;;4986739;28;20018;-93
2023/09/26 09:57:22;;;;;;;10.25;3.28;;;13.80;99.90;;;;;;4986617;28;20037;-94
2023/09/26 09:59:50;;;;;;;12.48;4.65;;;13.90;99.90;;;;;;4983609;28;20066;-93
2023/09/26 10:02:21;;;;;;;12.25;3.75;;;14.00;99.90;;;;;;4982800;28;20018;-94
2023/09/26 10:04:48;;;;;;;11.95;3.70;;;14.10;99.90;;;;;;4981642;28;20022;-94
2023/09/26 10:07:17;;;;;;;19.63;3.90;;;14.10;99.90;;;;;;4980296;28;20026;-94
2023/09/26 10:09:44;;;;;;;17.42;3.40;;;14.10;99.90;;;;;;4981737;28;20033;-93
2023/09/26 10:12:12;;;;;;;10.30;3.58;;;14.10;99.90;;;;;;4979735;28;20022;-95
2023/09/26 10:14:41;;;;;;;9.73;3.25;;;14.10;99.90;;;;;;4978910;28;20030;-94
2023/09/26 10:17:07;;;;;;;13.05;3.63;;;14.20;99.90;;;;;;4975874;28;20018;-93
2023/09/26 10:19:35;;;;;;;14.18;3.58;;;14.40;99.90;;;;;;4977997;28;20029;-93
2023/09/26 10:22:17;;;;;;;19.65;5.13;;;14.50;99.90;;;;;;4976737;28;20161;-92
2023/09/26 10:24:52;;;;;;;14.38;3.72;;;14.60;99.90;;;;;;4977139;28;20023;-94
2023/09/26 10:27:23;;;;;;;13.85;3.50;;;14.80;99.90;;;;;;4977406;28;20026;-94
2023/09/26 10:29:52;;;;;;;10.75;3.45;;;14.90;99.90;;;;;;4974560;28;20034;-91
2023/09/26 10:32:32;;;;;;;7.28;3.40;;;15.10;99.90;;;;;;4976224;28;20117;-93
2023/09/26 10:34:59;;;;;;;11.43;3.25;;;15.20;99.90;;;;;;4977077;28;20030;-94
2023/09/26 10:37:28;;;;;;;8.73;3.03;;;15.30;99.90;;;;;;4976343;28;20492;-92
2023/09/26 10:39:54;;;;;;;8.68;3.83;;;15.40;99.90;;;;;;4976191;28;20026;-93
2023/09/26 10:42:23;;;;;;;10.52;3.33;;;15.60;99.90;;;;;;4976754;28;20030;-93
2023/09/26 10:44:50;;;;;;;11.32;4.15;;;15.80;99.90;;;;;;4978897;28;20498;-93
2023/09/26 10:47:21;;;;;;;9.25;3.22;;;16.00;99.90;;;;;;4977883;28;20023;-93
2023/09/26 10:49:47;;;;;;;7.45;3.70;;;16.30;99.90;;;;;;4995404;28;20026;-96
2023/09/26 10:52:14;;;;;;;9.10;3.70;;;16.40;99.90;;;;;;4986415;28;20053;-94
2023/09/26 10:54:41;;;;;;;6.32;3.15;;;16.60;99.90;;;;;;5003630;28;20018;-94
2023/09/26 10:57:18;;;;;;;5.15;2.78;;;16.60;99.90;;;;;;5008330;28;20033;-94
2023/09/26 10:59:44;;;;;;;7.93;3.08;;;16.80;99.90;;;;;;4991874;28;20018;-95
2023/09/26 11:02:12;;;;;;;11.18;3.05;;;17.20;99.90;;;;;;4993569;28;20098;-94
2023/09/26 11:04:39;;;;;;;7.80;3.05;;;17.60;99.90;;;;;;4984267;28;20027;-94
2023/09/26 11:07:06;;;;;;;8.70;2.92;;;17.80;99.90;;;;;;4969426;28;20094;-96
2023/09/26 11:09:41;;;;;;;11.73;3.65;;;18.00;99.90;;;;;;4997903;28;20052;-96
2023/09/26 11:12:08;;;;;;;6.47;3.03;;;18.20;99.90;;;;;;4970610;28;20043;-94
2023/09/26 11:14:34;;;;;;;9.13;3.40;;;18.40;99.90;;;;;;4982779;28;20110;-96
2023/09/26 11:17:20;;;;;;;9.40;3.33;;;18.50;99.90;;;;;;5001997;28;20027;-95
2023/09/26 11:19:49;;;;;;;6.78;3.35;;;18.70;99.90;;;;;;4981989;28;20027;-95
2023/09/26 11:22:17;;;;;;;5.38;2.47;;;18.80;99.90;;;;;;4978988;28;20022;-95
2023/09/26 11:24:43;;;;;;;10.82;3.22;;;19.00;99.90;;;;;;4982091;28;20031;-95
2023/09/26 11:27:09;;;;;;;7.15;2.70;;;19.10;99.90;;;;;;4981077;28;20023;-95
2023/09/26 11:29:35;;;;;;;6.47;2.42;;;19.30;99.90;;;;;;4979305;28;20042;-95
2023/09/26 11:32:04;;;;;;;6.93;2.53;;;19.50;99.90;;;;;;4998543;28;20031;-94
2023/09/26 11:34:30;;;;;;;9.63;2.40;;;19.60;99.90;;;;;;4984150;28;20065;-95
2023/09/26 11:36:58;;;;;;;4.68;2.33;;;19.80;99.90;;;;;;4985202;28;20038;-95
2023/09/26 11:39:24;;;;;;;6.00;2.70;;;19.90;99.90;;;;;;4967019;28;20031;-95
2023/09/26 11:42:07;;;;;;;7.47;2.45;;;20.00;99.90;;;;;;4984656;28;20031;-96
2023/09/26 11:44:33;;;;;;;6.03;2.60;;;20.20;99.90;;;;;;4985633;28;20050;-95
2023/09/26 11:46:59;;;;;;;6.47;2.47;;;20.30;99.90;;;;;;4987199;28;20037;-95
2023/09/26 11:49:30;;;;;;;9.15;2.72;;;20.40;99.90;;;;;;4989864;28;20037;-96
2023/09/26 11:51:58;;;;;;;7.57;2.83;;;20.60;99.90;;;;;;4994180;28;20043;-95
2023/09/26 11:54:24;;;;;;;7.88;2.58;;;20.80;99.90;;;;;;4992496;28;20028;-96
2023/09/26 11:56:59;;;;;;;8.07;3.17;;;21.00;99.90;;;;;;4993366;28;20049;-95
2023/09/26 11:59:25;;;;;;;7.47;2.38;;;21.00;99.90;;;;;;4991382;28;20038;-96
2023/09/26 12:01:51;;;;;;;6.05;2.55;;;21.20;99.90;;;;;;4990543;28;20088;-96
2023/09/26 12:04:17;;;;;;;8.07;3.00;;;21.40;99.90;;;;;;4990009;28;20066;-96
2023/09/26 12:06:46;;;;;;;7.18;2.83;;;21.60;99.10;;;;;;4988767;28;20084;-95
2023/09/26 12:09:21;;;;;;;7.80;2.40;;;21.60;96.90;;;;;;4987982;28;20081;-95
2023/09/26 12:11:48;;;;;;;4.20;1.98;;;21.40;96.10;;;;;;4987259;28;20593;-96
2023/09/26 12:14:15;;;;;;;7.07;2.30;;;21.10;95.80;;;;;;4988186;28;20038;-96
2023/09/26 12:16:42;;;;;;;6.63;2.22;;;21.20;96.70;;;;;;4988531;28;20046;-96
2023/09/26 12:19:08;;;;;;;5.90;2.20;;;21.40;96.80;;;;;;4989597;28;20026;-96
2023/09/26 12:21:34;;;;;;;6.30;2.35;;;21.60;96.10;;;;;;4989836;28;20026;-95
2023/09/26 12:24:03;;;;;;;6.93;2.00;;;21.60;95.50;;;;;;4992014;28;20037;-96
2023/09/26 12:26:29;;;;;;;8.10;2.83;;;21.80;95.50;;;;;;4985092;28;20038;-95
2023/09/26 12:28:55;;;;;;;7.30;1.90;;;21.90;95.20;;;;;;4984514;28;20044;-96
2023/09/26 12:31:21;;;;;;;6.45;1.90;;;22.10;94.80;;;;;;4982916;28;20041;-96
2023/09/26 12:33:47;;;;;;;6.93;2.55;;;22.20;94.10;;;;;;4983579;28;20068;-96
2023/09/26 12:36:15;;;;;;;4.57;2.00;;;22.30;92.70;;;;;;4981779;28;20030;-96
2023/09/26 12:38:41;;;;;;;9.25;2.00;;;22.20;92.00;;;;;;4982514;28;20041;-95